sensor_id;sensor_type;location;lat;lon;timestamp;P1;durP1;ratioP1;P2;durP2;ratioP2
69240;SDS011;56352;55.750;13.198;2022-12-18T00:02:13;15.98;;;7.28;;
69240;SDS011;56352;55.750;13.198;2022-12-18T00:04:40;14.48;;;7.28;;
69240;SDS011;56352;55.750;13.198;2022-12-18T00:07:06;16.63;;;7.82;;
69240;SDS011;56352;55.750;13.198;2022-12-18T00:09:33;13.23;;;7.47;;
69240;SDS011;56352;55.750;13.198;2022-12-18T00:12:06;12.25;;;7.10;;
69240;SDS011;56352;55.750;13.198;2022-12-18T00:14:41;13.80;;;6.30;;
69240;SDS011;56352;55.750;13.198;2022-12-18T00:19:36;13.10;;;6.78;;
69240;SDS011;56352;55.750;13.198;2022-12-18T00:22:03;14.48;;;7.10;;
69240;SDS011;56352;55.750;13.198;2022-12-18T00:24:30;16.45;;;7.50;;
69240;SDS011;56352;55.750;13.198;2022-12-18T00:26:56;12.30;;;6.63;;
69240;SDS011;56352;55.750;13.198;2022-12-18T00:29:23;15.35;;;7.05;;
69240;SDS011;56352;55.750;13.198;2022-12-18T00:31:50;13.02;;;7.05;;
69240;SDS011;56352;55.750;13.198;2022-12-18T00:34:16;13.95;;;7.50;;
69240;SDS011;56352;55.750;13.198;2022-12-18T00:36:43;13.48;;;6.80;;
69240;SDS011;56352;55.750;13.198;2022-12-18T00:39:10;13.77;;;6.47;;
69240;SDS011;56352;55.750;13.198;2022-12-18T00:41:37;14.10;;;6.28;;
69240;SDS011;56352;55.750;13.198;2022-12-18T00:44:22;11.80;;;6.53;;
69240;SDS011;56352;55.750;13.198;2022-12-18T00:46:49;11.82;;;5.72;;
69240;SDS011;56352;55.750;13.198;2022-12-18T00:49:16;11.63;;;5.75;;
69240;SDS011;56352;55.750;13.198;2022-12-18T00:51:45;13.18;;;5.75;;
69240;SDS011;56352;55.750;13.198;2022-12-18T00:54:11;12.77;;;6.57;;
69240;SDS011;56352;55.750;13.198;2022-12-18T00:56:38;13.60;;;6.47;;
69240;SDS011;56352;55.750;13.198;2022-12-18T00:59:14;11.13;;;6.05;;
69240;SDS011;56352;55.750;13.198;2022-12-18T01:01:41;16.83;;;6.82;;
69240;SDS011;56352;55.750;13.198;2022-12-18T01:04:11;13.35;;;5.63;;
69240;SDS011;56352;55.750;13.198;2022-12-18T01:06:38;13.23;;;6.57;;
69240;SDS011;56352;55.750;13.198;2022-12-18T01:09:05;10.43;;;5.45;;
69240;SDS011;56352;55.750;13.198;2022-12-18T01:11:32;10.10;;;5.68;;
69240;SDS011;56352;55.750;13.198;2022-12-18T01:13:58;13.38;;;6.43;;
69240;SDS011;56352;55.750;13.198;2022-12-18T01:16:25;8.95;;;4.90;;
69240;SDS011;56352;55.750;13.198;2022-12-18T01:18:52;8.20;;;4.80;;
69240;SDS011;56352;55.750;13.198;2022-12-18T01:21:22;10.30;;;5.22;;
69240;SDS011;56352;55.750;13.198;2022-12-18T01:23:51;10.02;;;5.40;;
69240;SDS011;56352;55.750;13.198;2022-12-18T01:26:18;9.45;;;4.72;;
69240;SDS011;56352;55.750;13.198;2022-12-18T01:28:45;11.43;;;4.72;;
69240;SDS011;56352;55.750;13.198;2022-12-18T01:31:18;9.68;;;5.30;;
69240;SDS011;56352;55.750;13.198;2022-12-18T01:33:48;9.35;;;4.97;;
69240;SDS011;56352;55.750;13.198;2022-12-18T01:36:16;9.98;;;4.72;;
69240;SDS011;56352;55.750;13.198;2022-12-18T01:38:44;7.47;;;4.25;;
69240;SDS011;56352;55.750;13.198;2022-12-18T01:41:11;10.07;;;4.75;;
69240;SDS011;56352;55.750;13.198;2022-12-18T01:46:12;8.38;;;4.60;;
69240;SDS011;56352;55.750;13.198;2022-12-18T01:48:39;8.13;;;4.15;;
69240;SDS011;56352;55.750;13.198;2022-12-18T01:51:06;7.53;;;4.80;;
69240;SDS011;56352;55.750;13.198;2022-12-18T01:53:34;9.57;;;4.45;;
69240;SDS011;56352;55.750;13.198;2022-12-18T01:56:03;10.67;;;5.10;;
69240;SDS011;56352;55.750;13.198;2022-12-18T01:58:41;7.65;;;4.53;;
69240;SDS011;56352;55.750;13.198;2022-12-18T02:01:09;13.02;;;4.55;;
69240;SDS011;56352;55.750;13.198;2022-12-18T02:03:36;9.57;;;4.80;;
69240;SDS011;56352;55.750;13.198;2022-12-18T02:06:08;7.93;;;4.45;;
69240;SDS011;56352;55.750;13.198;2022-12-18T02:11:35;8.57;;;4.70;;
69240;SDS011;56352;55.750;13.198;2022-12-18T02:17:08;7.95;;;4.80;;
69240;SDS011;56352;55.750;13.198;2022-12-18T02:27:55;9.20;;;4.85;;
69240;SDS011;56352;55.750;13.198;2022-12-18T02:30:25;12.50;;;6.20;;
69240;SDS011;56352;55.750;13.198;2022-12-18T02:32:53;14.13;;;6.20;;
69240;SDS011;56352;55.750;13.198;2022-12-18T02:35:22;10.18;;;5.57;;
69240;SDS011;56352;55.750;13.198;2022-12-18T02:37:53;9.70;;;6.03;;
69240;SDS011;56352;55.750;13.198;2022-12-18T02:40:20;10.93;;;5.93;;
69240;SDS011;56352;55.750;13.198;2022-12-18T02:42:48;13.65;;;6.00;;
69240;SDS011;56352;55.750;13.198;2022-12-18T02:45:15;9.25;;;5.70;;
69240;SDS011;56352;55.750;13.198;2022-12-18T02:47:43;10.43;;;6.63;;
69240;SDS011;56352;55.750;13.198;2022-12-18T02:50:22;10.00;;;6.05;;
69240;SDS011;56352;55.750;13.198;2022-12-18T02:53:14;12.40;;;6.22;;
69240;SDS011;56352;55.750;13.198;2022-12-18T02:56:34;13.55;;;6.40;;
69240;SDS011;56352;55.750;13.198;2022-12-18T02:58:47;11.27;;;5.75;;
69240;SDS011;56352;55.750;13.198;2022-12-18T03:04:09;10.30;;;5.32;;
69240;SDS011;56352;55.750;13.198;2022-12-18T03:06:41;12.65;;;6.25;;
69240;SDS011;56352;55.750;13.198;2022-12-18T03:11:38;10.43;;;5.63;;
69240;SDS011;56352;55.750;13.198;2022-12-18T03:14:25;11.10;;;5.60;;
69240;SDS011;56352;55.750;13.198;2022-12-18T03:16:54;20.13;;;6.53;;
69240;SDS011;56352;55.750;13.198;2022-12-18T03:19:25;10.80;;;5.68;;
69240;SDS011;56352;55.750;13.198;2022-12-18T03:21:55;10.35;;;5.65;;
69240;SDS011;56352;55.750;13.198;2022-12-18T03:24:24;12.98;;;6.05;;
69240;SDS011;56352;55.750;13.198;2022-12-18T03:26:53;11.98;;;5.57;;
69240;SDS011;56352;55.750;13.198;2022-12-18T03:29:22;10.38;;;5.68;;
69240;SDS011;56352;55.750;13.198;2022-12-18T03:31:54;12.05;;;4.97;;
69240;SDS011;56352;55.750;13.198;2022-12-18T03:34:24;12.48;;;4.93;;
69240;SDS011;56352;55.750;13.198;2022-12-18T03:36:55;9.63;;;5.15;;
69240;SDS011;56352;55.750;13.198;2022-12-18T03:39:21;10.25;;;5.60;;
69240;SDS011;56352;55.750;13.198;2022-12-18T03:41:52;10.77;;;5.00;;
69240;SDS011;56352;55.750;13.198;2022-12-18T03:47:08;8.38;;;4.93;;
69240;SDS011;56352;55.750;13.198;2022-12-18T03:55:18;7.68;;;4.40;;
69240;SDS011;56352;55.750;13.198;2022-12-18T03:57:46;7.68;;;4.50;;
69240;SDS011;56352;55.750;13.198;2022-12-18T04:00:14;8.60;;;4.75;;
69240;SDS011;56352;55.750;13.198;2022-12-18T04:02:48;11.20;;;5.70;;
69240;SDS011;56352;55.750;13.198;2022-12-18T04:05:18;9.27;;;5.18;;
69240;SDS011;56352;55.750;13.198;2022-12-18T04:07:46;8.55;;;4.72;;
69240;SDS011;56352;55.750;13.198;2022-12-18T04:10:14;12.52;;;5.93;;
69240;SDS011;56352;55.750;13.198;2022-12-18T04:12:42;9.75;;;5.00;;
69240;SDS011;56352;55.750;13.198;2022-12-18T04:15:09;11.43;;;5.25;;
69240;SDS011;56352;55.750;13.198;2022-12-18T04:17:37;10.30;;;5.55;;
69240;SDS011;56352;55.750;13.198;2022-12-18T04:20:04;12.27;;;5.18;;
69240;SDS011;56352;55.750;13.198;2022-12-18T04:22:31;9.25;;;5.35;;
69240;SDS011;56352;55.750;13.198;2022-12-18T04:24:58;12.75;;;5.28;;
69240;SDS011;56352;55.750;13.198;2022-12-18T04:27:24;7.70;;;4.75;;
69240;SDS011;56352;55.750;13.198;2022-12-18T04:29:51;11.80;;;5.50;;
69240;SDS011;56352;55.750;13.198;2022-12-18T04:32:17;9.00;;;4.88;;
69240;SDS011;56352;55.750;13.198;2022-12-18T04:34:44;8.95;;;5.25;;
69240;SDS011;56352;55.750;13.198;2022-12-18T04:37:11;12.57;;;5.43;;
69240;SDS011;56352;55.750;13.198;2022-12-18T04:39:37;7.75;;;4.88;;
69240;SDS011;56352;55.750;13.198;2022-12-18T04:42:04;9.60;;;5.28;;
69240;SDS011;56352;55.750;13.198;2022-12-18T04:44:30;9.77;;;5.32;;
69240;SDS011;56352;55.750;13.198;2022-12-18T04:46:57;12.70;;;4.90;;
69240;SDS011;56352;55.750;13.198;2022-12-18T04:49:24;10.63;;;5.68;;
69240;SDS011;56352;55.750;13.198;2022-12-18T04:51:50;10.73;;;4.93;;
69240;SDS011;56352;55.750;13.198;2022-12-18T04:54:18;11.38;;;5.10;;
69240;SDS011;56352;55.750;13.198;2022-12-18T04:56:46;9.70;;;5.20;;
69240;SDS011;56352;55.750;13.198;2022-12-18T04:59:12;11.20;;;5.15;;
69240;SDS011;56352;55.750;13.198;2022-12-18T05:01:39;9.45;;;5.18;;
69240;SDS011;56352;55.750;13.198;2022-12-18T05:04:06;11.43;;;6.20;;
69240;SDS011;56352;55.750;13.198;2022-12-18T05:06:33;13.65;;;5.18;;
69240;SDS011;56352;55.750;13.198;2022-12-18T05:09:00;10.85;;;5.72;;
69240;SDS011;56352;55.750;13.198;2022-12-18T05:11:26;10.05;;;5.43;;
69240;SDS011;56352;55.750;13.198;2022-12-18T05:13:53;9.73;;;4.72;;
69240;SDS011;56352;55.750;13.198;2022-12-18T05:16:19;13.50;;;5.50;;
69240;SDS011;56352;55.750;13.198;2022-12-18T05:18:46;17.98;;;5.95;;
69240;SDS011;56352;55.750;13.198;2022-12-18T05:21:13;13.57;;;6.47;;
69240;SDS011;56352;55.750;13.198;2022-12-18T05:23:39;14.50;;;5.97;;
69240;SDS011;56352;55.750;13.198;2022-12-18T05:26:14;13.93;;;5.53;;
69240;SDS011;56352;55.750;13.198;2022-12-18T05:28:45;9.90;;;5.10;;
69240;SDS011;56352;55.750;13.198;2022-12-18T05:31:12;13.30;;;5.80;;
69240;SDS011;56352;55.750;13.198;2022-12-18T05:33:39;14.23;;;6.63;;
69240;SDS011;56352;55.750;13.198;2022-12-18T05:36:07;11.77;;;5.30;;
69240;SDS011;56352;55.750;13.198;2022-12-18T05:38:35;9.23;;;5.60;;
69240;SDS011;56352;55.750;13.198;2022-12-18T05:41:03;12.88;;;5.95;;
69240;SDS011;56352;55.750;13.198;2022-12-18T05:43:30;10.65;;;5.65;;
69240;SDS011;56352;55.750;13.198;2022-12-18T05:45:57;12.65;;;5.32;;
69240;SDS011;56352;55.750;13.198;2022-12-18T05:48:23;14.13;;;5.65;;
69240;SDS011;56352;55.750;13.198;2022-12-18T05:50:50;11.07;;;5.60;;
69240;SDS011;56352;55.750;13.198;2022-12-18T05:53:17;9.50;;;4.80;;
69240;SDS011;56352;55.750;13.198;2022-12-18T05:55:45;11.10;;;5.13;;
69240;SDS011;56352;55.750;13.198;2022-12-18T05:58:13;8.98;;;4.88;;
69240;SDS011;56352;55.750;13.198;2022-12-18T06:00:41;12.43;;;5.20;;
69240;SDS011;56352;55.750;13.198;2022-12-18T06:03:09;10.02;;;5.55;;
69240;SDS011;56352;55.750;13.198;2022-12-18T06:05:37;14.13;;;6.10;;
69240;SDS011;56352;55.750;13.198;2022-12-18T06:08:04;12.00;;;5.45;;
69240;SDS011;56352;55.750;13.198;2022-12-18T06:10:31;13.35;;;5.55;;
69240;SDS011;56352;55.750;13.198;2022-12-18T06:12:58;9.48;;;5.88;;
69240;SDS011;56352;55.750;13.198;2022-12-18T06:15:25;12.07;;;5.40;;
69240;SDS011;56352;55.750;13.198;2022-12-18T06:17:51;10.95;;;5.75;;
69240;SDS011;56352;55.750;13.198;2022-12-18T06:20:18;12.30;;;5.55;;
69240;SDS011;56352;55.750;13.198;2022-12-18T06:22:45;10.27;;;5.50;;
69240;SDS011;56352;55.750;13.198;2022-12-18T06:25:11;9.73;;;5.25;;
69240;SDS011;56352;55.750;13.198;2022-12-18T06:27:38;13.40;;;5.72;;
69240;SDS011;56352;55.750;13.198;2022-12-18T06:30:05;10.55;;;5.15;;
69240;SDS011;56352;55.750;13.198;2022-12-18T06:32:32;12.88;;;5.93;;
69240;SDS011;56352;55.750;13.198;2022-12-18T06:34:59;12.40;;;5.28;;
69240;SDS011;56352;55.750;13.198;2022-12-18T06:37:25;12.60;;;5.75;;
69240;SDS011;56352;55.750;13.198;2022-12-18T06:39:55;11.43;;;5.13;;
69240;SDS011;56352;55.750;13.198;2022-12-18T06:42:23;13.45;;;5.68;;
69240;SDS011;56352;55.750;13.198;2022-12-18T06:44:50;11.55;;;4.78;;
69240;SDS011;56352;55.750;13.198;2022-12-18T06:47:17;11.00;;;5.22;;
69240;SDS011;56352;55.750;13.198;2022-12-18T06:49:44;14.20;;;5.22;;
69240;SDS011;56352;55.750;13.198;2022-12-18T06:52:10;12.40;;;5.50;;
69240;SDS011;56352;55.750;13.198;2022-12-18T06:54:37;9.77;;;5.47;;
69240;SDS011;56352;55.750;13.198;2022-12-18T06:57:03;10.10;;;5.07;;
69240;SDS011;56352;55.750;13.198;2022-12-18T06:59:30;11.52;;;5.30;;
69240;SDS011;56352;55.750;13.198;2022-12-18T07:01:56;12.65;;;5.22;;
69240;SDS011;56352;55.750;13.198;2022-12-18T07:04:30;12.05;;;5.28;;
69240;SDS011;56352;55.750;13.198;2022-12-18T07:06:57;10.18;;;5.38;;
69240;SDS011;56352;55.750;13.198;2022-12-18T07:09:24;11.35;;;5.20;;
69240;SDS011;56352;55.750;13.198;2022-12-18T07:11:51;11.00;;;5.50;;
69240;SDS011;56352;55.750;13.198;2022-12-18T07:14:18;10.77;;;5.07;;
69240;SDS011;56352;55.750;13.198;2022-12-18T07:16:44;13.25;;;5.75;;
69240;SDS011;56352;55.750;13.198;2022-12-18T07:19:11;12.35;;;5.30;;
69240;SDS011;56352;55.750;13.198;2022-12-18T07:21:37;12.00;;;5.72;;
69240;SDS011;56352;55.750;13.198;2022-12-18T07:24:04;13.18;;;5.55;;
69240;SDS011;56352;55.750;13.198;2022-12-18T07:26:31;12.88;;;5.85;;
69240;SDS011;56352;55.750;13.198;2022-12-18T07:28:58;11.93;;;5.35;;
69240;SDS011;56352;55.750;13.198;2022-12-18T07:31:25;14.02;;;5.57;;
69240;SDS011;56352;55.750;13.198;2022-12-18T07:33:52;11.45;;;5.03;;
69240;SDS011;56352;55.750;13.198;2022-12-18T07:36:22;14.27;;;5.65;;
69240;SDS011;56352;55.750;13.198;2022-12-18T07:38:49;11.05;;;4.90;;
69240;SDS011;56352;55.750;13.198;2022-12-18T07:41:17;10.50;;;5.35;;
69240;SDS011;56352;55.750;13.198;2022-12-18T07:43:45;11.05;;;5.07;;
69240;SDS011;56352;55.750;13.198;2022-12-18T07:46:12;13.27;;;5.57;;
69240;SDS011;56352;55.750;13.198;2022-12-18T07:48:42;11.25;;;5.25;;
69240;SDS011;56352;55.750;13.198;2022-12-18T07:51:14;13.65;;;5.78;;
69240;SDS011;56352;55.750;13.198;2022-12-18T07:53:41;9.15;;;4.88;;
69240;SDS011;56352;55.750;13.198;2022-12-18T07:56:09;15.50;;;6.30;;
69240;SDS011;56352;55.750;13.198;2022-12-18T07:58:53;10.35;;;5.03;;
69240;SDS011;56352;55.750;13.198;2022-12-18T08:01:20;12.68;;;5.55;;
69240;SDS011;56352;55.750;13.198;2022-12-18T08:03:47;13.70;;;5.15;;
69240;SDS011;56352;55.750;13.198;2022-12-18T08:06:15;11.00;;;5.85;;
69240;SDS011;56352;55.750;13.198;2022-12-18T08:08:41;12.73;;;5.32;;
69240;SDS011;56352;55.750;13.198;2022-12-18T08:11:08;11.90;;;4.88;;
69240;SDS011;56352;55.750;13.198;2022-12-18T08:13:34;12.57;;;5.88;;
69240;SDS011;56352;55.750;13.198;2022-12-18T08:16:03;10.27;;;5.82;;
69240;SDS011;56352;55.750;13.198;2022-12-18T08:18:35;10.77;;;4.97;;
69240;SDS011;56352;55.750;13.198;2022-12-18T08:21:09;9.68;;;5.10;;
69240;SDS011;56352;55.750;13.198;2022-12-18T08:23:37;12.90;;;4.90;;
69240;SDS011;56352;55.750;13.198;2022-12-18T08:26:08;10.95;;;4.68;;
69240;SDS011;56352;55.750;13.198;2022-12-18T08:28:36;10.10;;;4.78;;
69240;SDS011;56352;55.750;13.198;2022-12-18T08:31:02;8.70;;;5.00;;
69240;SDS011;56352;55.750;13.198;2022-12-18T08:33:30;11.02;;;4.07;;
69240;SDS011;56352;55.750;13.198;2022-12-18T08:35:58;9.45;;;4.35;;
69240;SDS011;56352;55.750;13.198;2022-12-18T08:38:25;12.13;;;5.00;;
69240;SDS011;56352;55.750;13.198;2022-12-18T08:41:04;11.00;;;4.90;;
69240;SDS011;56352;55.750;13.198;2022-12-18T08:43:32;10.93;;;4.30;;
69240;SDS011;56352;55.750;13.198;2022-12-18T08:46:18;10.07;;;4.22;;
69240;SDS011;56352;55.750;13.198;2022-12-18T08:48:45;11.02;;;4.28;;
69240;SDS011;56352;55.750;13.198;2022-12-18T08:51:12;10.02;;;4.38;;
69240;SDS011;56352;55.750;13.198;2022-12-18T08:53:39;9.80;;;4.07;;
69240;SDS011;56352;55.750;13.198;2022-12-18T08:56:07;7.57;;;4.38;;
69240;SDS011;56352;55.750;13.198;2022-12-18T08:58:33;10.20;;;4.78;;
69240;SDS011;56352;55.750;13.198;2022-12-18T09:01:01;9.57;;;4.95;;
69240;SDS011;56352;55.750;13.198;2022-12-18T09:03:31;11.88;;;4.57;;
69240;SDS011;56352;55.750;13.198;2022-12-18T09:05:59;11.30;;;4.65;;
69240;SDS011;56352;55.750;13.198;2022-12-18T09:08:26;8.20;;;4.45;;
69240;SDS011;56352;55.750;13.198;2022-12-18T09:10:52;11.32;;;4.70;;
69240;SDS011;56352;55.750;13.198;2022-12-18T09:13:19;9.48;;;4.30;;
69240;SDS011;56352;55.750;13.198;2022-12-18T09:15:50;11.90;;;4.57;;
69240;SDS011;56352;55.750;13.198;2022-12-18T09:18:18;12.38;;;5.25;;
69240;SDS011;56352;55.750;13.198;2022-12-18T09:20:46;12.53;;;4.57;;
69240;SDS011;56352;55.750;13.198;2022-12-18T09:23:13;11.05;;;4.60;;
69240;SDS011;56352;55.750;13.198;2022-12-18T09:25:43;11.23;;;5.32;;
69240;SDS011;56352;55.750;13.198;2022-12-18T09:28:10;8.35;;;3.80;;
69240;SDS011;56352;55.750;13.198;2022-12-18T09:30:39;9.35;;;4.30;;
69240;SDS011;56352;55.750;13.198;2022-12-18T09:33:07;9.18;;;4.47;;
69240;SDS011;56352;55.750;13.198;2022-12-18T09:35:37;11.07;;;4.70;;
69240;SDS011;56352;55.750;13.198;2022-12-18T09:38:04;12.18;;;4.95;;
69240;SDS011;56352;55.750;13.198;2022-12-18T09:41:15;10.48;;;5.07;;
69240;SDS011;56352;55.750;13.198;2022-12-18T09:43:24;9.52;;;5.18;;
69240;SDS011;56352;55.750;13.198;2022-12-18T09:45:57;13.00;;;5.25;;
69240;SDS011;56352;55.750;13.198;2022-12-18T09:48:36;13.68;;;5.45;;
69240;SDS011;56352;55.750;13.198;2022-12-18T09:51:17;9.68;;;4.88;;
69240;SDS011;56352;55.750;13.198;2022-12-18T09:53:50;9.25;;;4.47;;
69240;SDS011;56352;55.750;13.198;2022-12-18T09:56:20;9.30;;;4.88;;
69240;SDS011;56352;55.750;13.198;2022-12-18T09:58:51;8.77;;;4.70;;
69240;SDS011;56352;55.750;13.198;2022-12-18T10:01:21;22.55;;;5.63;;
69240;SDS011;56352;55.750;13.198;2022-12-18T10:04:00;12.93;;;5.13;;
69240;SDS011;56352;55.750;13.198;2022-12-18T10:06:32;12.57;;;5.45;;
69240;SDS011;56352;55.750;13.198;2022-12-18T10:14:27;13.30;;;5.40;;
69240;SDS011;56352;55.750;13.198;2022-12-18T10:19:48;10.30;;;4.85;;
69240;SDS011;56352;55.750;13.198;2022-12-18T10:27:36;12.75;;;5.75;;
69240;SDS011;56352;55.750;13.198;2022-12-18T10:30:04;10.20;;;5.10;;
69240;SDS011;56352;55.750;13.198;2022-12-18T10:32:39;13.07;;;5.80;;
69240;SDS011;56352;55.750;13.198;2022-12-18T10:35:07;11.38;;;5.45;;
69240;SDS011;56352;55.750;13.198;2022-12-18T10:37:58;10.38;;;5.70;;
69240;SDS011;56352;55.750;13.198;2022-12-18T10:40:36;12.50;;;6.18;;
69240;SDS011;56352;55.750;13.198;2022-12-18T10:43:29;14.82;;;5.80;;
69240;SDS011;56352;55.750;13.198;2022-12-18T10:48:35;12.80;;;5.20;;
69240;SDS011;56352;55.750;13.198;2022-12-18T10:51:03;9.50;;;4.82;;
69240;SDS011;56352;55.750;13.198;2022-12-18T10:53:39;10.85;;;5.32;;
69240;SDS011;56352;55.750;13.198;2022-12-18T10:58:35;9.77;;;5.20;;
69240;SDS011;56352;55.750;13.198;2022-12-18T11:03:40;16.85;;;5.88;;
69240;SDS011;56352;55.750;13.198;2022-12-18T11:08:43;13.32;;;5.78;;
69240;SDS011;56352;55.750;13.198;2022-12-18T11:11:21;13.80;;;5.55;;
69240;SDS011;56352;55.750;13.198;2022-12-18T11:16:36;11.80;;;4.97;;
69240;SDS011;56352;55.750;13.198;2022-12-18T11:19:09;12.27;;;5.65;;
69240;SDS011;56352;55.750;13.198;2022-12-18T11:21:53;11.50;;;5.45;;
69240;SDS011;56352;55.750;13.198;2022-12-18T11:24:30;10.63;;;5.53;;
69240;SDS011;56352;55.750;13.198;2022-12-18T11:26:59;13.82;;;5.82;;
69240;SDS011;56352;55.750;13.198;2022-12-18T11:29:32;11.98;;;5.20;;
69240;SDS011;56352;55.750;13.198;2022-12-18T11:37:12;10.57;;;4.93;;
69240;SDS011;56352;55.750;13.198;2022-12-18T11:39:44;13.55;;;5.45;;
69240;SDS011;56352;55.750;13.198;2022-12-18T11:42:20;11.25;;;5.90;;
69240;SDS011;56352;55.750;13.198;2022-12-18T11:45:04;12.68;;;5.50;;
69240;SDS011;56352;55.750;13.198;2022-12-18T11:47:49;10.02;;;4.97;;
69240;SDS011;56352;55.750;13.198;2022-12-18T11:53:03;14.85;;;5.43;;
69240;SDS011;56352;55.750;13.198;2022-12-18T11:58:46;11.88;;;5.53;;
69240;SDS011;56352;55.750;13.198;2022-12-18T12:09:45;11.68;;;5.57;;
69240;SDS011;56352;55.750;13.198;2022-12-18T12:12:27;16.00;;;5.57;;
69240;SDS011;56352;55.750;13.198;2022-12-18T12:15:20;13.20;;;5.70;;
69240;SDS011;56352;55.750;13.198;2022-12-18T12:20:55;9.98;;;5.00;;
69240;SDS011;56352;55.750;13.198;2022-12-18T12:31:33;12.30;;;5.30;;
69240;SDS011;56352;55.750;13.198;2022-12-18T12:34:24;9.82;;;4.88;;
69240;SDS011;56352;55.750;13.198;2022-12-18T12:39:27;10.80;;;4.82;;
69240;SDS011;56352;55.750;13.198;2022-12-18T12:41:57;10.85;;;5.03;;
69240;SDS011;56352;55.750;13.198;2022-12-18T12:44:43;11.45;;;5.15;;
69240;SDS011;56352;55.750;13.198;2022-12-18T12:47:22;8.57;;;4.65;;
69240;SDS011;56352;55.750;13.198;2022-12-18T12:49:51;11.38;;;4.85;;
69240;SDS011;56352;55.750;13.198;2022-12-18T12:52:30;10.55;;;4.68;;
69240;SDS011;56352;55.750;13.198;2022-12-18T12:55:13;10.18;;;4.80;;
69240;SDS011;56352;55.750;13.198;2022-12-18T12:57:43;15.40;;;5.10;;
69240;SDS011;56352;55.750;13.198;2022-12-18T13:00:13;11.48;;;5.15;;
69240;SDS011;56352;55.750;13.198;2022-12-18T13:02:49;12.13;;;5.03;;
69240;SDS011;56352;55.750;13.198;2022-12-18T13:05:26;11.10;;;4.63;;
69240;SDS011;56352;55.750;13.198;2022-12-18T13:10:26;10.13;;;4.85;;
69240;SDS011;56352;55.750;13.198;2022-12-18T13:13:04;13.07;;;5.22;;
69240;SDS011;56352;55.750;13.198;2022-12-18T13:15:43;9.93;;;4.80;;
69240;SDS011;56352;55.750;13.198;2022-12-18T13:18:16;8.32;;;4.50;;
69240;SDS011;56352;55.750;13.198;2022-12-18T13:23:19;9.43;;;4.47;;
69240;SDS011;56352;55.750;13.198;2022-12-18T13:25:58;9.43;;;4.90;;
69240;SDS011;56352;55.750;13.198;2022-12-18T13:31:11;8.73;;;3.95;;
69240;SDS011;56352;55.750;13.198;2022-12-18T13:33:40;12.05;;;4.97;;
69240;SDS011;56352;55.750;13.198;2022-12-18T13:39:39;13.15;;;4.80;;
69240;SDS011;56352;55.750;13.198;2022-12-18T13:41:47;11.52;;;5.07;;
69240;SDS011;56352;55.750;13.198;2022-12-18T13:46:50;7.88;;;3.90;;
69240;SDS011;56352;55.750;13.198;2022-12-18T13:51:55;10.88;;;5.30;;
69240;SDS011;56352;55.750;13.198;2022-12-18T13:54:30;8.02;;;4.55;;
69240;SDS011;56352;55.750;13.198;2022-12-18T13:56:59;8.32;;;4.35;;
69240;SDS011;56352;55.750;13.198;2022-12-18T13:59:26;8.82;;;4.13;;
69240;SDS011;56352;55.750;13.198;2022-12-18T14:02:00;7.43;;;3.67;;
69240;SDS011;56352;55.750;13.198;2022-12-18T14:04:30;6.60;;;3.42;;
69240;SDS011;56352;55.750;13.198;2022-12-18T14:09:26;9.95;;;4.90;;
69240;SDS011;56352;55.750;13.198;2022-12-18T14:11:52;12.18;;;5.13;;
69240;SDS011;56352;55.750;13.198;2022-12-18T14:14:42;16.08;;;5.40;;
69240;SDS011;56352;55.750;13.198;2022-12-18T14:17:10;17.45;;;5.05;;
69240;SDS011;56352;55.750;13.198;2022-12-18T14:19:40;11.80;;;5.50;;
69240;SDS011;56352;55.750;13.198;2022-12-18T14:22:12;8.70;;;4.90;;
69240;SDS011;56352;55.750;13.198;2022-12-18T14:24:40;9.10;;;4.70;;
69240;SDS011;56352;55.750;13.198;2022-12-18T14:30:18;10.63;;;4.28;;
69240;SDS011;56352;55.750;13.198;2022-12-18T14:33:02;12.32;;;4.15;;
69240;SDS011;56352;55.750;13.198;2022-12-18T14:35:30;7.95;;;4.38;;
69240;SDS011;56352;55.750;13.198;2022-12-18T14:40:56;8.20;;;3.80;;
69240;SDS011;56352;55.750;13.198;2022-12-18T14:43:23;7.50;;;3.58;;
69240;SDS011;56352;55.750;13.198;2022-12-18T14:45:50;9.32;;;4.13;;
69240;SDS011;56352;55.750;13.198;2022-12-18T14:48:36;8.63;;;4.00;;
69240;SDS011;56352;55.750;13.198;2022-12-18T14:51:05;10.48;;;4.22;;
69240;SDS011;56352;55.750;13.198;2022-12-18T14:53:37;9.95;;;4.25;;
69240;SDS011;56352;55.750;13.198;2022-12-18T14:56:18;9.60;;;3.90;;
69240;SDS011;56352;55.750;13.198;2022-12-18T14:58:49;9.63;;;3.95;;
69240;SDS011;56352;55.750;13.198;2022-12-18T15:01:18;10.23;;;4.40;;
69240;SDS011;56352;55.750;13.198;2022-12-18T15:03:44;8.13;;;3.97;;
69240;SDS011;56352;55.750;13.198;2022-12-18T15:06:24;10.50;;;4.32;;
69240;SDS011;56352;55.750;13.198;2022-12-18T15:08:52;8.32;;;3.47;;
69240;SDS011;56352;55.750;13.198;2022-12-18T15:17:18;8.63;;;3.63;;
69240;SDS011;56352;55.750;13.198;2022-12-18T15:19:46;10.32;;;3.80;;
69240;SDS011;56352;55.750;13.198;2022-12-18T15:22:24;7.00;;;4.00;;
69240;SDS011;56352;55.750;13.198;2022-12-18T15:24:51;11.70;;;4.25;;
69240;SDS011;56352;55.750;13.198;2022-12-18T15:27:31;8.70;;;4.40;;
69240;SDS011;56352;55.750;13.198;2022-12-18T15:30:17;11.55;;;4.60;;
69240;SDS011;56352;55.750;13.198;2022-12-18T15:32:44;10.05;;;4.50;;
69240;SDS011;56352;55.750;13.198;2022-12-18T15:35:13;8.20;;;4.03;;
69240;SDS011;56352;55.750;13.198;2022-12-18T15:37:40;8.55;;;4.47;;
69240;SDS011;56352;55.750;13.198;2022-12-18T15:40:08;8.15;;;4.07;;
69240;SDS011;56352;55.750;13.198;2022-12-18T15:42:37;8.52;;;3.78;;
69240;SDS011;56352;55.750;13.198;2022-12-18T15:45:22;6.45;;;3.80;;
69240;SDS011;56352;55.750;13.198;2022-12-18T15:47:49;8.65;;;4.15;;
69240;SDS011;56352;55.750;13.198;2022-12-18T15:50:15;8.38;;;4.00;;
69240;SDS011;56352;55.750;13.198;2022-12-18T15:52:44;10.90;;;4.85;;
69240;SDS011;56352;55.750;13.198;2022-12-18T15:57:56;10.23;;;4.05;;
69240;SDS011;56352;55.750;13.198;2022-12-18T16:00:23;7.65;;;3.35;;
69240;SDS011;56352;55.750;13.198;2022-12-18T16:02:49;10.75;;;4.53;;
69240;SDS011;56352;55.750;13.198;2022-12-18T16:05:16;7.78;;;3.75;;
69240;SDS011;56352;55.750;13.198;2022-12-18T16:07:44;6.65;;;3.50;;
69240;SDS011;56352;55.750;13.198;2022-12-18T16:10:10;7.65;;;3.65;;
69240;SDS011;56352;55.750;13.198;2022-12-18T16:12:37;8.20;;;4.13;;
69240;SDS011;56352;55.750;13.198;2022-12-18T16:15:04;11.10;;;3.95;;
69240;SDS011;56352;55.750;13.198;2022-12-18T16:17:31;8.52;;;3.90;;
69240;SDS011;56352;55.750;13.198;2022-12-18T16:19:58;6.15;;;3.45;;
69240;SDS011;56352;55.750;13.198;2022-12-18T16:22:25;11.15;;;3.90;;
69240;SDS011;56352;55.750;13.198;2022-12-18T16:24:53;7.32;;;3.78;;
69240;SDS011;56352;55.750;13.198;2022-12-18T16:27:20;8.30;;;3.65;;
69240;SDS011;56352;55.750;13.198;2022-12-18T16:29:47;9.63;;;4.13;;
69240;SDS011;56352;55.750;13.198;2022-12-18T16:32:15;10.57;;;4.28;;
69240;SDS011;56352;55.750;13.198;2022-12-18T16:34:41;14.55;;;4.50;;
69240;SDS011;56352;55.750;13.198;2022-12-18T16:37:08;9.48;;;4.70;;
69240;SDS011;56352;55.750;13.198;2022-12-18T16:39:35;7.85;;;4.32;;
69240;SDS011;56352;55.750;13.198;2022-12-18T16:42:23;13.98;;;4.53;;
69240;SDS011;56352;55.750;13.198;2022-12-18T16:44:49;9.23;;;4.35;;
69240;SDS011;56352;55.750;13.198;2022-12-18T16:47:16;11.20;;;4.65;;
69240;SDS011;56352;55.750;13.198;2022-12-18T16:49:43;11.07;;;4.88;;